createdAt,value
2023-02-01T00:00:02.177Z,1026.87
2023-02-01T00:00:33.080Z,1026.83
2023-02-01T00:01:04.006Z,1026.82
2023-02-01T00:01:34.922Z,1026.82
2023-02-01T00:02:05.833Z,1026.82
2023-02-01T00:02:36.781Z,1026.82
2023-02-01T00:03:07.701Z,1026.80
2023-02-01T00:03:38.743Z,1026.83
2023-02-01T00:04:09.186Z,1026.83
2023-02-01T00:04:40.117Z,1026.80
2023-02-01T00:05:11.081Z,1026.85
2023-02-01T00:05:42.071Z,1026.85
2023-02-01T00:06:14.416Z,1026.84
2023-02-01T00:06:43.864Z,1026.86
2023-02-01T00:07:14.793Z,1026.85
2023-02-01T00:07:45.732Z,1026.84
2023-02-01T00:08:16.649Z,1026.83
2023-02-01T00:08:47.561Z,1026.81
2023-02-01T00:09:18.490Z,1026.82
2023-02-01T00:09:49.390Z,1026.78
2023-02-01T00:10:20.624Z,1026.80
2023-02-01T00:10:51.235Z,1026.76
2023-02-01T00:11:22.176Z,1026.73
2023-02-01T00:11:53.158Z,1026.71
2023-02-01T00:12:24.058Z,1026.72
2023-02-01T00:12:54.988Z,1026.75
2023-02-01T00:13:25.897Z,1026.71
2023-02-01T00:13:56.797Z,1026.67
2023-02-01T00:14:27.717Z,1026.68
2023-02-01T00:14:58.671Z,1026.73
2023-02-01T00:15:29.595Z,1026.67
2023-02-01T00:16:00.556Z,1026.67
2023-02-01T00:16:31.472Z,1026.64
2023-02-01T00:17:02.380Z,1026.61
2023-02-01T00:17:33.323Z,1026.62
2023-02-01T00:18:04.234Z,1026.57
2023-02-01T00:18:35.160Z,1026.65
2023-02-01T00:19:06.086Z,1026.62
2023-02-01T00:19:36.988Z,1026.57
2023-02-01T00:20:07.913Z,1026.57
2023-02-01T00:20:38.823Z,1026.54
2023-02-01T00:21:09.754Z,1026.53
2023-02-01T00:21:40.702Z,1026.51
2023-02-01T00:22:11.666Z,1026.53
2023-02-01T00:22:42.560Z,1026.52
2023-02-01T00:23:13.467Z,1026.54
2023-02-01T00:23:44.398Z,1026.56
2023-02-01T00:24:15.321Z,1026.52
2023-02-01T00:24:46.267Z,1026.56
2023-02-01T00:25:17.231Z,1026.54
2023-02-01T00:25:48.198Z,1026.58
2023-02-01T00:26:50.168Z,1026.57
2023-02-01T00:27:20.628Z,1026.60
2023-02-01T00:27:51.552Z,1026.56
2023-02-01T00:28:22.450Z,1026.55
2023-02-01T00:28:53.357Z,1026.60
2023-02-01T00:29:24.286Z,1026.56
2023-02-01T00:29:55.200Z,1026.54
2023-02-01T00:30:26.157Z,1026.54
2023-02-01T00:30:57.232Z,1026.49
2023-02-01T00:31:29.545Z,1026.55
2023-02-01T00:31:58.655Z,1026.53
2023-02-01T00:32:29.603Z,1026.57
2023-02-01T00:33:00.545Z,1026.53
2023-02-01T00:33:31.487Z,1026.55
2023-02-01T00:34:02.395Z,1026.54
2023-02-01T00:34:33.335Z,1026.55
2023-02-01T00:35:04.266Z,1026.53
2023-02-01T00:35:35.199Z,1026.55
2023-02-01T00:36:06.105Z,1026.54
2023-02-01T00:36:37.030Z,1026.53
2023-02-01T00:37:07.962Z,1026.53
2023-02-01T00:37:38.895Z,1026.54
2023-02-01T00:38:09.843Z,1026.53
2023-02-01T00:38:40.774Z,1026.54
2023-02-01T00:39:11.695Z,1026.54
2023-02-01T00:39:42.580Z,1026.52
2023-02-01T00:40:13.526Z,1026.52
2023-02-01T00:40:45.313Z,1026.54
2023-02-01T00:41:15.298Z,1026.56
2023-02-01T00:41:46.213Z,1026.56
2023-02-01T00:42:17.130Z,1026.53
2023-02-01T00:42:48.095Z,1026.56
2023-02-01T00:43:18.992Z,1026.56
2023-02-01T00:43:49.906Z,1026.54
2023-02-01T00:44:20.815Z,1026.56
2023-02-01T00:44:51.745Z,1026.53
2023-02-01T00:45:22.664Z,1026.52
2023-02-01T00:45:53.604Z,1026.52
2023-02-01T00:46:24.635Z,1026.51
2023-02-01T00:46:55.162Z,1026.52
2023-02-01T00:47:25.593Z,1026.50
2023-02-01T00:47:56.534Z,1026.49
2023-02-01T00:48:27.468Z,1026.49
2023-02-01T00:48:58.397Z,1026.50
2023-02-01T00:50:00.249Z,1026.46
2023-02-01T00:50:31.164Z,1026.46
2023-02-01T00:51:02.115Z,1026.51
2023-02-01T00:51:33.055Z,1026.45
2023-02-01T00:52:03.960Z,1026.48
2023-02-01T00:52:34.915Z,1026.46
2023-02-01T00:53:05.835Z,1026.47
2023-02-01T00:53:36.823Z,1026.48
2023-02-01T00:54:07.749Z,1026.44
2023-02-01T00:54:38.653Z,1026.41
2023-02-01T00:55:09.591Z,1026.41
2023-02-01T00:55:40.503Z,1026.39
2023-02-01T00:56:11.491Z,1026.37
2023-02-01T00:56:41.962Z,1026.37
2023-02-01T00:57:12.922Z,1026.35
2023-02-01T00:57:43.822Z,1026.36
2023-02-01T00:58:14.762Z,1026.37
2023-02-01T00:58:46.216Z,1026.34
2023-02-01T00:59:16.203Z,1026.31
2023-02-01T00:59:47.124Z,1026.34
2023-02-01T01:00:18.075Z,1026.35
2023-02-01T01:00:49.067Z,1026.35
2023-02-01T01:01:19.515Z,1026.35
2023-02-01T01:01:50.485Z,1026.34
2023-02-01T01:02:21.483Z,1026.37
2023-02-01T01:02:51.894Z,1026.34
2023-02-01T01:03:22.819Z,1026.38
2023-02-01T01:03:54.042Z,1026.36
2023-02-01T01:04:24.539Z,1026.35
2023-02-01T01:04:55.451Z,1026.38
2023-02-01T01:05:26.355Z,1026.37
2023-02-01T01:05:57.262Z,1026.35
2023-02-01T01:06:28.175Z,1026.33
2023-02-01T01:06:59.146Z,1026.33
2023-02-01T01:07:30.097Z,1026.33
2023-02-01T01:08:00.992Z,1026.32
2023-02-01T01:08:32.143Z,1026.28
2023-02-01T01:09:02.620Z,1026.31
2023-02-01T01:09:33.596Z,1026.29
2023-02-01T01:10:04.501Z,1026.27
2023-02-01T01:10:35.500Z,1026.26
2023-02-01T01:11:06.410Z,1026.28
2023-02-01T01:11:37.341Z,1026.28
2023-02-01T01:12:39.252Z,1026.28
2023-02-01T01:13:10.141Z,1026.28
2023-02-01T01:13:41.149Z,1026.30
2023-02-01T01:14:12.185Z,1026.29
2023-02-01T01:14:42.575Z,1026.30
2023-02-01T01:15:13.507Z,1026.31
2023-02-01T01:15:44.498Z,1026.30
2023-02-01T01:16:15.503Z,1026.31
2023-02-01T01:16:46.044Z,1026.29
2023-02-01T01:17:16.973Z,1026.28
2023-02-01T01:17:47.910Z,1026.29
2023-02-01T01:18:19.534Z,1026.27
2023-02-01T01:18:49.445Z,1026.27
2023-02-01T01:19:20.420Z,1026.24
2023-02-01T01:19:51.311Z,1026.26
2023-02-01T01:20:22.558Z,1026.27
2023-02-01T01:20:53.182Z,1026.25
2023-02-01T01:21:24.157Z,1026.21
2023-02-01T01:21:54.643Z,1026.23
2023-02-01T01:22:25.579Z,1026.24
2023-02-01T01:22:56.500Z,1026.24
2023-02-01T01:23:27.480Z,1026.23
2023-02-01T01:23:58.433Z,1026.22
2023-02-01T01:24:29.375Z,1026.23
2023-02-01T01:25:00.317Z,1026.20
2023-02-01T01:25:31.219Z,1026.21
2023-02-01T01:26:02.128Z,1026.22
2023-02-01T01:26:33.081Z,1026.20
2023-02-01T01:27:03.994Z,1026.18
2023-02-01T01:27:34.929Z,1026.20
2023-02-01T01:28:05.860Z,1026.21
2023-02-01T01:28:36.797Z,1026.20
2023-02-01T01:29:07.727Z,1026.21
2023-02-01T01:29:38.629Z,1026.23
2023-02-01T01:30:40.571Z,1026.17
2023-02-01T01:31:11.631Z,1026.19
2023-02-01T01:31:42.178Z,1026.18
2023-02-01T01:32:13.100Z,1026.19
2023-02-01T01:32:44.022Z,1026.18
2023-02-01T01:33:14.929Z,1026.18
2023-02-01T01:33:45.865Z,1026.16
2023-02-01T01:34:16.792Z,1026.17
2023-02-01T01:34:47.721Z,1026.18
2023-02-01T01:35:49.581Z,1026.13
2023-02-01T01:36:20.674Z,1026.13
2023-02-01T01:36:51.155Z,1026.13
2023-02-01T01:37:22.104Z,1026.13
2023-02-01T01:37:53.001Z,1026.09
2023-02-01T01:38:23.929Z,1026.09
2023-02-01T01:38:54.851Z,1026.08
2023-02-01T01:39:25.773Z,1026.03
2023-02-01T01:39:56.691Z,1025.98
2023-02-01T01:40:27.773Z,1025.97
2023-02-01T01:40:58.259Z,1025.97
2023-02-01T01:41:29.188Z,1025.99
2023-02-01T01:42:00.099Z,1025.98
2023-02-01T01:42:31.053Z,1025.99
2023-02-01T01:43:01.979Z,1026.00
2023-02-01T01:43:32.955Z,1025.99
2023-02-01T01:44:03.873Z,1025.96
2023-02-01T01:44:34.808Z,1025.95
2023-02-01T01:45:05.738Z,1025.91
2023-02-01T01:45:36.632Z,1025.94
2023-02-01T01:46:07.621Z,1025.88
2023-02-01T01:46:38.757Z,1025.89
2023-02-01T01:47:09.363Z,1025.86
2023-02-01T01:47:39.810Z,1025.85
2023-02-01T01:48:10.740Z,1025.80
2023-02-01T01:48:41.646Z,1025.76
2023-02-01T01:49:12.569Z,1025.77
2023-02-01T01:49:43.457Z,1025.78
2023-02-01T01:50:14.385Z,1025.74
2023-02-01T01:50:45.343Z,1025.74
2023-02-01T01:51:16.247Z,1025.74
2023-02-01T01:51:47.193Z,1025.72
2023-02-01T01:52:18.090Z,1025.70
2023-02-01T01:52:49.192Z,1025.68
2023-02-01T01:53:50.490Z,1025.68
2023-02-01T01:54:21.401Z,1025.66
2023-02-01T01:54:52.348Z,1025.61
2023-02-01T01:55:23.277Z,1025.60
2023-02-01T01:55:54.209Z,1025.60
2023-02-01T01:56:25.147Z,1025.61
2023-02-01T01:56:56.091Z,1025.62
2023-02-01T01:57:27.014Z,1025.61
2023-02-01T01:57:57.963Z,1025.60
2023-02-01T01:58:29.086Z,1025.64
2023-02-01T01:58:59.611Z,1025.66
2023-02-01T01:59:30.555Z,1025.60
2023-02-01T02:00:01.526Z,1025.66
2023-02-01T02:00:32.031Z,1025.63
2023-02-01T02:01:03.009Z,1025.66
2023-02-01T02:01:33.928Z,1025.62
2023-02-01T02:02:04.930Z,1025.65
2023-02-01T02:02:35.835Z,1025.67
2023-02-01T02:03:06.775Z,1025.68
2023-02-01T02:03:37.681Z,1025.70
2023-02-01T02:04:08.584Z,1025.70
2023-02-01T02:04:39.512Z,1025.71
2023-02-01T02:05:10.420Z,1025.72
2023-02-01T02:05:41.334Z,1025.69
2023-02-01T02:06:12.249Z,1025.70
2023-02-01T02:06:43.186Z,1025.71
2023-02-01T02:07:14.785Z,1025.72
2023-02-01T02:07:44.716Z,1025.70
2023-02-01T02:08:15.637Z,1025.70
2023-02-01T02:08:46.592Z,1025.76
2023-02-01T02:09:17.623Z,1025.72
2023-02-01T02:09:59.524Z,1025.67
2023-02-01T02:10:19.275Z,1025.71
2023-02-01T02:10:49.433Z,1025.71
2023-02-01T02:11:20.358Z,1025.72
2023-02-01T02:11:51.302Z,1025.72
2023-02-01T02:12:22.235Z,1025.73
2023-02-01T02:12:53.135Z,1025.73
2023-02-01T02:13:24.080Z,1025.75
2023-02-01T02:13:55.028Z,1025.74
2023-02-01T02:14:25.968Z,1025.74
2023-02-01T02:14:56.910Z,1025.76
2023-02-01T02:15:27.848Z,1025.77
2023-02-01T02:15:58.821Z,1025.77
2023-02-01T02:16:29.382Z,1025.74
2023-02-01T02:16:59.822Z,1025.73
2023-02-01T02:17:30.771Z,1025.77
2023-02-01T02:18:01.693Z,1025.78
2023-02-01T02:18:32.616Z,1025.78
2023-02-01T02:19:03.702Z,1025.76
2023-02-01T02:19:34.194Z,1025.79
2023-02-01T02:20:05.108Z,1025.74
2023-02-01T02:20:36.042Z,1025.75
2023-02-01T02:21:06.950Z,1025.80
2023-02-01T02:21:37.878Z,1025.83
2023-02-01T02:22:08.793Z,1025.84
2023-02-01T02:22:39.721Z,1025.85
2023-02-01T02:23:10.658Z,1025.83
2023-02-01T02:23:41.642Z,1025.80
2023-02-01T02:24:12.721Z,1025.80
2023-02-01T02:24:43.239Z,1025.70
2023-02-01T02:25:13.660Z,1025.76
2023-02-01T02:25:44.570Z,1025.76
2023-02-01T02:26:15.585Z,1025.75
2023-02-01T02:26:46.076Z,1025.73
2023-02-01T02:27:17.005Z,1025.74
2023-02-01T02:27:47.940Z,1025.77
2023-02-01T02:28:18.879Z,1025.82
2023-02-01T02:28:49.809Z,1025.82
2023-02-01T02:29:20.831Z,1025.82
2023-02-01T02:29:51.736Z,1025.78
2023-02-01T02:30:23.050Z,1025.79
2023-02-01T02:30:53.216Z,1025.78
2023-02-01T02:31:24.230Z,1025.76
2023-02-01T02:31:54.667Z,1025.74
2023-02-01T02:32:25.569Z,1025.74
2023-02-01T02:32:56.487Z,1025.75
2023-02-01T02:33:27.405Z,1025.73
2023-02-01T02:33:58.324Z,1025.70
2023-02-01T02:34:29.239Z,1025.69
2023-02-01T02:35:00.204Z,1025.72
2023-02-01T02:35:31.213Z,1025.66
2023-02-01T02:36:01.633Z,1025.67
2023-02-01T02:36:32.524Z,1025.65
2023-02-01T02:37:03.494Z,1025.71
2023-02-01T02:37:34.383Z,1025.71
2023-02-01T02:38:05.308Z,1025.70
2023-02-01T02:38:36.498Z,1025.67
2023-02-01T02:39:06.916Z,1025.63
2023-02-01T02:39:37.854Z,1025.62
2023-02-01T02:40:08.785Z,1025.63
2023-02-01T02:40:39.748Z,1025.61
2023-02-01T02:41:10.648Z,1025.62
2023-02-01T02:41:41.559Z,1025.62
2023-02-01T02:42:12.491Z,1025.60
2023-02-01T02:42:43.429Z,1025.59
2023-02-01T02:43:14.364Z,1025.59
2023-02-01T02:43:45.294Z,1025.55
2023-02-01T02:44:16.858Z,1025.58
2023-02-01T02:44:46.815Z,1025.64
2023-02-01T02:45:17.718Z,1025.65
2023-02-01T02:45:48.658Z,1025.63
2023-02-01T02:46:19.588Z,1025.63
2023-02-01T02:46:50.477Z,1025.64
2023-02-01T02:47:21.399Z,1025.62
2023-02-01T02:47:52.319Z,1025.63
2023-02-01T02:48:23.228Z,1025.64
2023-02-01T02:48:54.145Z,1025.61
2023-02-01T02:49:25.066Z,1025.59
2023-02-01T02:49:56.051Z,1025.60
2023-02-01T02:50:27.171Z,1025.59
2023-02-01T02:50:57.629Z,1025.60
2023-02-01T02:51:28.526Z,1025.63
2023-02-01T02:51:59.460Z,1025.62
2023-02-01T02:52:30.387Z,1025.66
2023-02-01T02:53:01.319Z,1025.66
2023-02-01T02:53:32.319Z,1025.62
2023-02-01T02:54:03.251Z,1025.60
2023-02-01T02:54:34.206Z,1025.61
2023-02-01T02:55:36.007Z,1025.60
2023-02-01T02:56:06.934Z,1025.60
2023-02-01T02:56:38.525Z,1025.62
2023-02-01T02:57:08.462Z,1025.65
2023-02-01T02:57:39.387Z,1025.65
2023-02-01T02:58:10.334Z,1025.60
2023-02-01T02:58:41.269Z,1025.61
2023-02-01T02:59:12.185Z,1025.63
2023-02-01T02:59:43.147Z,1025.63
2023-02-01T03:00:14.057Z,1025.63
2023-02-01T03:00:45.026Z,1025.63
2023-02-01T03:01:16.074Z,1025.58
2023-02-01T03:01:46.519Z,1025.63
2023-02-01T03:02:17.442Z,1025.55
2023-02-01T03:02:48.411Z,1025.54
2023-02-01T03:03:19.315Z,1025.51
2023-02-01T03:03:50.311Z,1025.55
2023-02-01T03:04:20.790Z,1025.52
2023-02-01T03:04:51.688Z,1025.57
2023-02-01T03:05:24.488Z,1025.55
2023-02-01T03:05:53.457Z,1025.52
2023-02-01T03:06:24.377Z,1025.53
2023-02-01T03:06:55.337Z,1025.48
2023-02-01T03:07:26.310Z,1025.51
2023-02-01T03:07:57.244Z,1025.51
2023-02-01T03:08:28.145Z,1025.54
2023-02-01T03:08:59.078Z,1025.53
2023-02-01T03:09:30.022Z,1025.52
2023-02-01T03:10:00.926Z,1025.51
2023-02-01T03:10:31.829Z,1025.50
2023-02-01T03:11:02.748Z,1025.53
2023-02-01T03:11:33.693Z,1025.53
2023-02-01T03:12:04.626Z,1025.57
2023-02-01T03:12:35.551Z,1025.56
2023-02-01T03:13:06.469Z,1025.55
2023-02-01T03:13:37.375Z,1025.53
2023-02-01T03:14:08.300Z,1025.53
2023-02-01T03:14:39.555Z,1025.54
2023-02-01T03:15:10.008Z,1025.53
2023-02-01T03:15:40.952Z,1025.54
2023-02-01T03:16:11.866Z,1025.52
2023-02-01T03:16:42.847Z,1025.50
2023-02-01T03:17:13.798Z,1025.48
2023-02-01T03:17:44.695Z,1025.53
2023-02-01T03:18:15.646Z,1025.45
2023-02-01T03:18:46.611Z,1025.50
2023-02-01T03:19:17.512Z,1025.48
2023-02-01T03:19:48.422Z,1025.48
2023-02-01T03:20:21.633Z,1025.46
2023-02-01T03:20:50.298Z,1025.45
2023-02-01T03:21:21.204Z,1025.46
2023-02-01T03:21:52.116Z,1025.49
2023-02-01T03:22:23.102Z,1025.42
2023-02-01T03:22:53.987Z,1025.46
2023-02-01T03:23:24.903Z,1025.49
2023-02-01T03:23:56.368Z,1025.48
2023-02-01T03:24:26.830Z,1025.46
2023-02-01T03:24:57.748Z,1025.46
2023-02-01T03:25:28.668Z,1025.47
2023-02-01T03:25:59.579Z,1025.46
2023-02-01T03:26:30.533Z,1025.45
2023-02-01T03:27:01.446Z,1025.48
2023-02-01T03:27:32.379Z,1025.46
2023-02-01T03:28:03.295Z,1025.45
2023-02-01T03:28:34.211Z,1025.40
2023-02-01T03:29:05.146Z,1025.37
2023-02-01T03:29:36.087Z,1025.45
2023-02-01T03:30:07.002Z,1025.40
2023-02-01T03:30:37.967Z,1025.45
2023-02-01T03:31:08.904Z,1025.47
2023-02-01T03:31:39.929Z,1025.49
2023-02-01T03:32:10.372Z,1025.49
2023-02-01T03:32:41.299Z,1025.49
2023-02-01T03:33:12.188Z,1025.50
2023-02-01T03:33:43.126Z,1025.53
2023-02-01T03:34:14.042Z,1025.46
2023-02-01T03:34:44.964Z,1025.44
2023-02-01T03:35:15.882Z,1025.39
2023-02-01T03:35:46.797Z,1025.35
2023-02-01T03:36:17.977Z,1025.36
2023-02-01T03:36:48.242Z,1025.43
2023-02-01T03:37:19.184Z,1025.45
2023-02-01T03:37:50.084Z,1025.48
2023-02-01T03:38:21.016Z,1025.49
2023-02-01T03:38:51.955Z,1025.44
2023-02-01T03:39:22.976Z,1025.41
2023-02-01T03:39:53.425Z,1025.36
2023-02-01T03:40:24.691Z,1025.35
2023-02-01T03:40:55.268Z,1025.31
2023-02-01T03:41:26.215Z,1025.31
2023-02-01T03:41:57.114Z,1025.25
2023-02-01T03:42:28.082Z,1025.28
2023-02-01T03:42:59.012Z,1025.33
2023-02-01T03:43:29.967Z,1025.33
2023-02-01T03:44:01.015Z,1025.32
2023-02-01T03:44:31.416Z,1025.29
2023-02-01T03:45:02.335Z,1025.32
2023-02-01T03:45:33.302Z,1025.38
2023-02-01T03:46:04.289Z,1025.37
2023-02-01T03:46:34.737Z,1025.33
2023-02-01T03:47:05.652Z,1025.33
2023-02-01T03:47:36.582Z,1025.32
2023-02-01T03:48:07.552Z,1025.24
2023-02-01T03:48:38.435Z,1025.27
2023-02-01T03:49:09.359Z,1025.33
2023-02-01T03:49:40.278Z,1025.38
2023-02-01T03:50:11.225Z,1025.39
2023-02-01T03:50:42.133Z,1025.38
2023-02-01T03:51:44.048Z,1025.35
2023-02-01T03:52:15.016Z,1025.35
2023-02-01T03:52:45.447Z,1025.35
2023-02-01T03:53:16.381Z,1025.37
2023-02-01T03:53:47.318Z,1025.34
2023-02-01T03:54:18.250Z,1025.36
2023-02-01T03:54:49.182Z,1025.40
2023-02-01T03:55:20.091Z,1025.39
2023-02-01T03:55:50.993Z,1025.41
2023-02-01T03:56:21.908Z,1025.41
2023-02-01T03:56:52.845Z,1025.41
2023-02-01T03:57:23.790Z,1025.40
2023-02-01T03:57:54.692Z,1025.36
2023-02-01T03:58:25.616Z,1025.40
2023-02-01T03:58:56.541Z,1025.40
2023-02-01T03:59:27.455Z,1025.45
2023-02-01T03:59:58.350Z,1025.40
2023-02-01T04:00:29.280Z,1025.43
2023-02-01T04:01:00.266Z,1025.39
2023-02-01T04:01:30.837Z,1025.33
2023-02-01T04:02:01.360Z,1025.37
2023-02-01T04:02:31.868Z,1025.38
2023-02-01T04:03:02.343Z,1025.37
2023-02-01T04:03:33.298Z,1025.35
2023-02-01T04:04:04.192Z,1025.34
2023-02-01T04:04:34.743Z,1025.38
2023-02-01T04:05:05.686Z,1025.46
2023-02-01T04:05:36.631Z,1025.46
2023-02-01T04:06:07.564Z,1025.43
2023-02-01T04:06:38.489Z,1025.41
2023-02-01T04:07:09.478Z,1025.49
2023-02-01T04:07:39.909Z,1025.47
2023-02-01T04:08:10.840Z,1025.46
2023-02-01T04:08:41.771Z,1025.42
2023-02-01T04:09:12.690Z,1025.40
2023-02-01T04:09:43.593Z,1025.43
2023-02-01T04:10:14.490Z,1025.38
2023-02-01T04:10:45.424Z,1025.35
2023-02-01T04:11:16.342Z,1025.40
2023-02-01T04:11:47.287Z,1025.41
2023-02-01T04:12:18.200Z,1025.40
2023-02-01T04:12:49.147Z,1025.42
2023-02-01T04:13:20.090Z,1025.38
2023-02-01T04:13:50.996Z,1025.42
2023-02-01T04:14:21.911Z,1025.39
2023-02-01T04:14:52.845Z,1025.33
2023-02-01T04:15:23.768Z,1025.34
2023-02-01T04:15:54.657Z,1025.36
2023-02-01T04:16:25.614Z,1025.38
2023-02-01T04:16:56.575Z,1025.33
2023-02-01T04:17:27.489Z,1025.40
2023-02-01T04:17:58.401Z,1025.37
2023-02-01T04:18:29.324Z,1025.40
2023-02-01T04:19:00.297Z,1025.39
2023-02-01T04:19:31.179Z,1025.35
2023-02-01T04:20:02.093Z,1025.38
2023-02-01T04:20:33.018Z,1025.37
2023-02-01T04:21:03.937Z,1025.34
2023-02-01T04:21:34.861Z,1025.34
2023-02-01T04:22:05.796Z,1025.37
2023-02-01T04:22:36.739Z,1025.42
2023-02-01T04:23:07.646Z,1025.37
2023-02-01T04:23:38.536Z,1025.35
2023-02-01T04:24:09.476Z,1025.36
2023-02-01T04:24:40.427Z,1025.40
2023-02-01T04:25:11.365Z,1025.46
2023-02-01T04:25:42.353Z,1025.40
2023-02-01T04:26:13.249Z,1025.42
2023-02-01T04:26:44.351Z,1025.43
2023-02-01T04:27:14.827Z,1025.40
2023-02-01T04:27:45.732Z,1025.35
2023-02-01T04:28:16.650Z,1025.31
2023-02-01T04:28:47.573Z,1025.28
2023-02-01T04:29:18.496Z,1025.26
2023-02-01T04:29:49.446Z,1025.30
2023-02-01T04:30:20.605Z,1025.26
2023-02-01T04:30:51.207Z,1025.27
2023-02-01T04:31:21.768Z,1025.33
2023-02-01T04:31:52.407Z,1025.29
2023-02-01T04:32:22.889Z,1025.34
2023-02-01T04:32:53.841Z,1025.35
2023-02-01T04:33:24.759Z,1025.34
2023-02-01T04:33:55.729Z,1025.34
2023-02-01T04:34:26.659Z,1025.39
2023-02-01T04:34:57.552Z,1025.32
2023-02-01T04:35:28.492Z,1025.37
2023-02-01T04:35:59.427Z,1025.40
2023-02-01T04:36:30.358Z,1025.41
2023-02-01T04:37:01.292Z,1025.38
2023-02-01T04:37:32.204Z,1025.38
2023-02-01T04:38:03.140Z,1025.38
2023-02-01T04:38:34.054Z,1025.39
2023-02-01T04:39:04.982Z,1025.36
2023-02-01T04:39:35.908Z,1025.31
2023-02-01T04:40:06.808Z,1025.36
2023-02-01T04:40:37.694Z,1025.36
2023-02-01T04:41:08.621Z,1025.36
2023-02-01T04:41:39.572Z,1025.38
2023-02-01T04:42:10.476Z,1025.38
2023-02-01T04:42:41.393Z,1025.37
2023-02-01T04:43:12.347Z,1025.33
2023-02-01T04:43:43.229Z,1025.31
2023-02-01T04:44:14.181Z,1025.32
2023-02-01T04:44:45.121Z,1025.29
2023-02-01T04:45:16.028Z,1025.30
2023-02-01T04:45:46.952Z,1025.29
2023-02-01T04:46:18.057Z,1025.32
2023-02-01T04:46:48.498Z,1025.33
2023-02-01T04:47:50.355Z,1025.32
2023-02-01T04:48:22.754Z,1025.35
2023-02-01T04:48:51.853Z,1025.42
2023-02-01T04:49:22.748Z,1025.45
2023-02-01T04:49:53.680Z,1025.45
2023-02-01T04:50:24.834Z,1025.46
2023-02-01T04:50:55.423Z,1025.41
2023-02-01T04:51:26.355Z,1025.44
2023-02-01T04:51:57.256Z,1025.42
2023-02-01T04:52:28.168Z,1025.43
2023-02-01T04:52:59.103Z,1025.43
2023-02-01T04:53:30.041Z,1025.40
2023-02-01T04:54:00.980Z,1025.40
2023-02-01T04:54:31.906Z,1025.45
2023-02-01T04:55:02.835Z,1025.42
2023-02-01T04:55:33.796Z,1025.41
2023-02-01T04:56:05.512Z,1025.41
2023-02-01T04:56:35.463Z,1025.42
2023-02-01T04:57:06.386Z,1025.37
2023-02-01T04:57:37.302Z,1025.41
2023-02-01T04:58:08.248Z,1025.41
2023-02-01T04:58:39.169Z,1025.31
2023-02-01T04:59:10.092Z,1025.33
2023-02-01T04:59:40.987Z,1025.27
2023-02-01T05:00:11.897Z,1025.24
2023-02-01T05:00:42.803Z,1025.25
2023-02-01T05:01:13.790Z,1025.21
2023-02-01T05:01:44.725Z,1025.21
2023-02-01T05:02:15.669Z,1025.21
2023-02-01T05:02:46.582Z,1025.17
2023-02-01T05:03:17.475Z,1025.14
2023-02-01T05:03:48.419Z,1025.21
2023-02-01T05:04:19.389Z,1025.17
2023-02-01T05:04:50.322Z,1025.11
2023-02-01T05:05:21.234Z,1025.03
2023-02-01T05:05:52.147Z,1025.03
2023-02-01T05:06:23.075Z,1024.98
2023-02-01T05:06:54.005Z,1024.99
2023-02-01T05:07:25.602Z,1025.02
2023-02-01T05:07:55.539Z,1024.94
2023-02-01T05:08:26.470Z,1025.00
2023-02-01T05:08:57.423Z,1024.97
2023-02-01T05:09:28.369Z,1025.04
2023-02-01T05:09:59.292Z,1025.01
2023-02-01T05:10:30.216Z,1024.98
2023-02-01T05:11:01.143Z,1025.00
2023-02-01T05:11:32.075Z,1025.05
2023-02-01T05:12:02.997Z,1025.04
2023-02-01T05:12:33.921Z,1025.07
2023-02-01T05:13:04.844Z,1025.10
2023-02-01T05:13:35.768Z,1025.16
2023-02-01T05:14:06.704Z,1025.15
2023-02-01T05:14:38.558Z,1025.17
2023-02-01T05:15:08.477Z,1025.19
2023-02-01T05:15:39.439Z,1025.22
2023-02-01T05:16:10.385Z,1025.21
2023-02-01T05:16:41.329Z,1025.16
2023-02-01T05:17:12.262Z,1025.15
2023-02-01T05:17:43.170Z,1025.21
2023-02-01T05:18:14.097Z,1025.18
2023-02-01T05:18:45.039Z,1025.21
2023-02-01T05:19:15.959Z,1025.21
2023-02-01T05:19:46.849Z,1025.20
2023-02-01T05:20:17.747Z,1025.21
2023-02-01T05:20:48.775Z,1025.20
2023-02-01T05:21:19.169Z,1025.17
2023-02-01T05:21:50.119Z,1025.12
2023-02-01T05:22:21.033Z,1025.08
2023-02-01T05:22:51.957Z,1025.09
2023-02-01T05:23:22.860Z,1025.13
2023-02-01T05:23:53.792Z,1025.11
2023-02-01T05:24:24.709Z,1025.16
2023-02-01T05:24:55.656Z,1025.08
2023-02-01T05:25:26.599Z,1025.06
2023-02-01T05:25:57.515Z,1025.11
2023-02-01T05:26:28.484Z,1025.12
2023-02-01T05:26:59.397Z,1025.00
2023-02-01T05:27:30.318Z,1025.08
2023-02-01T05:28:01.236Z,1025.09
2023-02-01T05:28:32.134Z,1025.08
2023-02-01T05:29:03.045Z,1025.08
2023-02-01T05:29:33.978Z,1025.09
2023-02-01T05:30:04.914Z,1025.02
2023-02-01T05:30:35.915Z,1025.00
2023-02-01T05:31:06.935Z,1025.01
2023-02-01T05:31:37.496Z,1024.98
2023-02-01T05:32:21.122Z,1024.98
2023-02-01T05:32:38.828Z,1025.05
2023-02-01T05:33:09.776Z,1025.01
2023-02-01T05:33:40.738Z,1025.04
2023-02-01T05:34:11.654Z,1024.97
2023-02-01T05:34:42.560Z,1025.08
2023-02-01T05:35:54.024Z,1025.09
2023-02-01T05:36:23.915Z,1025.13
2023-02-01T05:36:54.822Z,1025.11
2023-02-01T05:37:25.746Z,1025.18
2023-02-01T05:37:56.659Z,1025.19
2023-02-01T05:38:27.624Z,1025.13
2023-02-01T05:38:58.564Z,1025.21
2023-02-01T05:39:29.458Z,1025.19
2023-02-01T05:40:00.374Z,1025.19
2023-02-01T05:40:31.295Z,1025.24
2023-02-01T05:41:02.203Z,1025.20
2023-02-01T05:41:33.136Z,1025.19
2023-02-01T05:42:04.054Z,1025.21
2023-02-01T05:42:34.946Z,1025.26
2023-02-01T05:43:05.880Z,1025.21
2023-02-01T05:43:36.801Z,1025.26
2023-02-01T05:44:07.715Z,1025.22
2023-02-01T05:44:38.636Z,1025.23
2023-02-01T05:45:09.557Z,1025.24
2023-02-01T05:45:40.442Z,1025.18
2023-02-01T05:46:11.437Z,1025.21
2023-02-01T05:46:42.406Z,1025.15
2023-02-01T05:47:12.886Z,1025.14
2023-02-01T05:47:43.815Z,1025.15
2023-02-01T05:48:14.732Z,1025.05
2023-02-01T05:48:45.681Z,1025.14
2023-02-01T05:49:16.588Z,1025.07
2023-02-01T05:49:47.508Z,1025.11
2023-02-01T05:50:18.434Z,1024.99
2023-02-01T05:50:49.367Z,1025.02
2023-02-01T05:51:20.353Z,1025.01
2023-02-01T05:51:51.289Z,1024.99
2023-02-01T05:52:22.197Z,1024.96
2023-02-01T05:52:53.140Z,1024.90
2023-02-01T05:53:25.003Z,1024.92
2023-02-01T05:53:54.930Z,1024.86
2023-02-01T05:54:25.865Z,1024.85
2023-02-01T05:54:56.809Z,1024.80
2023-02-01T05:55:27.725Z,1024.84
2023-02-01T05:55:58.670Z,1024.83
2023-02-01T05:56:29.575Z,1024.89
2023-02-01T05:57:00.492Z,1024.91
2023-02-01T05:57:31.405Z,1024.90
2023-02-01T05:58:02.311Z,1024.96
2023-02-01T05:58:33.279Z,1024.97
2023-02-01T05:59:03.741Z,1025.00
2023-02-01T05:59:34.641Z,1025.00
2023-02-01T06:00:05.624Z,1024.99
2023-02-01T06:00:36.556Z,1025.05
2023-02-01T06:01:07.592Z,1025.02
2023-02-01T06:01:38.002Z,1025.04
2023-02-01T06:02:08.937Z,1025.05
2023-02-01T06:02:39.885Z,1025.09
2023-02-01T06:03:10.773Z,1025.04
2023-02-01T06:03:41.750Z,1025.06
2023-02-01T06:04:12.261Z,1025.02
2023-02-01T06:04:42.670Z,1025.03
2023-02-01T06:05:13.599Z,1025.10
2023-02-01T06:05:44.604Z,1025.06
2023-02-01T06:06:15.048Z,1025.01
2023-02-01T06:06:45.986Z,1025.03
2023-02-01T06:07:16.871Z,1025.03
2023-02-01T06:07:47.790Z,1025.03
2023-02-01T06:08:18.730Z,1025.02
2023-02-01T06:08:49.672Z,1025.00
2023-02-01T06:09:20.593Z,1024.97
2023-02-01T06:09:51.515Z,1024.96
2023-02-01T06:10:22.823Z,1025.02
2023-02-01T06:10:53.427Z,1025.01
2023-02-01T06:11:32.449Z,1024.95
2023-02-01T06:11:55.184Z,1024.99
2023-02-01T06:12:26.113Z,1024.91
2023-02-01T06:12:57.054Z,1025.00
2023-02-01T06:13:27.957Z,1024.95
2023-02-01T06:13:58.894Z,1024.97
2023-02-01T06:14:29.815Z,1024.95
2023-02-01T06:15:00.955Z,1025.00
2023-02-01T06:15:31.358Z,1024.96
2023-02-01T06:16:02.382Z,1024.91
2023-02-01T06:16:32.931Z,1024.97
2023-02-01T06:17:03.384Z,1024.98
2023-02-01T06:17:34.272Z,1024.93
2023-02-01T06:18:05.183Z,1025.01
2023-02-01T06:18:36.128Z,1024.94